Time;durP1;ratioP1;P1;durP2;ratioP2;P2;SDS_P1;SDS_P2;PMS_P1;PMS_P2;Temp;Humidity;BMP_temperature;BMP_pressure;BME280_temperature;BME280_humidity;BME280_pressure;Samples;Min_cycle;Max_cycle;Signal;HPM_P1;HPM_P2
2024/02/22 00:01:10;;;;;;;7.40;5.33;;;;;;;7.87;100.00;100367.47;5010746;28;20212;-75
2024/02/22 00:03:37;;;;;;;8.20;5.27;;;;;;;7.96;100.00;100367.31;5009914;28;20215;-75
2024/02/22 00:06:04;;;;;;;9.30;4.83;;;;;;;7.99;100.00;100374.94;5015825;28;20424;-75
2024/02/22 00:08:29;;;;;;;7.27;5.03;;;;;;;8.11;100.00;100384.91;5009485;28;20562;-75
2024/02/22 00:10:55;;;;;;;7.00;4.50;;;;;;;7.72;100.00;100315.16;5008209;28;20423;-75
2024/02/22 00:13:20;;;;;;;7.10;5.00;;;;;;;8.01;100.00;100367.56;5007734;28;20701;-75
2024/02/22 00:15:46;;;;;;;7.73;5.40;;;;;;;7.92;100.00;100358.84;5005583;28;20188;-75
2024/02/22 00:18:11;;;;;;;6.57;4.30;;;;;;;7.32;100.00;100248.09;5008929;28;20209;-75
2024/02/22 00:20:37;;;;;;;7.70;4.37;;;;;;;8.11;100.00;100352.03;5008721;28;20206;-75
2024/02/22 00:23:05;;;;;;;6.60;4.10;;;;;;;7.74;100.00;100265.88;5006786;28;20192;-75
2024/02/22 00:25:31;;;;;;;9.00;4.90;;;;;;;7.75;100.00;100262.19;5013043;28;20534;-75
2024/02/22 00:27:56;;;;;;;7.30;4.40;;;;;;;7.24;100.00;100175.19;5011028;28;20455;-75
2024/02/22 00:30:24;;;;;;;8.30;4.57;;;;;;;7.79;100.00;100300.84;5011541;28;20443;-75
2024/02/22 00:32:50;;;;;;;7.10;4.40;;;;;;;7.61;100.00;100271.13;5008382;28;20173;-75
2024/02/22 00:35:16;;;;;;;6.77;4.50;;;;;;;7.28;100.00;100198.81;5019011;28;20507;-75
2024/02/22 00:37:42;;;;;;;7.63;4.67;;;;;;;8.20;100.00;100342.03;5021263;28;20464;-75
2024/02/22 00:40:14;;;;;;;6.30;4.13;;;;;;;8.06;100.00;100306.38;5019568;28;20209;-75
2024/02/22 00:42:40;;;;;;;6.80;4.60;;;;;;;7.82;100.00;100279.09;5011989;28;20188;-75
2024/02/22 00:45:06;;;;;;;6.87;4.50;;;;;;;8.12;100.00;100316.28;5007867;28;20902;-75
2024/02/22 00:47:31;;;;;;;6.60;4.23;;;;;;;7.98;100.00;100296.66;5010549;28;21124;-75
2024/02/22 00:49:57;;;;;;;7.60;4.73;;;;;;;7.37;100.00;100203.81;5008252;28;20466;-75
2024/02/22 00:52:23;;;;;;;7.50;5.20;;;;;;;7.59;100.00;100215.28;5007576;28;20236;-75
2024/02/22 00:54:50;;;;;;;7.00;4.67;;;;;;;7.39;100.00;100191.09;5007105;28;20557;-75
2024/02/22 00:57:15;;;;;;;7.20;5.00;;;;;;;7.74;100.00;100249.03;5004069;28;20273;-75
2024/02/22 00:59:40;;;;;;;7.80;5.00;;;;;;;7.95;100.00;100265.00;5009459;28;20566;-75
2024/02/22 01:02:07;;;;;;;7.27;5.10;;;;;;;8.31;100.00;100330.78;5011055;28;20184;-75
2024/02/22 01:04:32;;;;;;;6.17;4.00;;;;;;;8.14;100.00;100288.34;5006419;28;20185;-75
2024/02/22 01:07:02;;;;;;;7.10;4.70;;;;;;;7.61;100.00;100223.91;5008333;28;20434;-75
2024/02/22 01:09:27;;;;;;;8.07;5.47;;;;;;;7.67;100.00;100219.66;5005650;28;20197;-75
2024/02/22 01:11:53;;;;;;;7.97;4.93;;;;;;;8.15;100.00;100278.47;5008960;28;20805;-75
2024/02/22 01:14:22;;;;;;;9.50;4.97;;;;;;;8.21;100.00;100304.41;5024674;28;20185;-75
2024/02/22 01:16:48;;;;;;;8.00;4.83;;;;;;;7.72;100.00;100233.22;5008404;28;20871;-75
2024/02/22 01:19:17;;;;;;;8.00;5.60;;;;;;;8.09;100.00;100288.09;4995570;28;20487;-75
2024/02/22 01:21:43;;;;;;;8.60;5.93;;;;;;;8.26;100.00;100315.34;5010836;28;20451;-75
2024/02/22 01:24:09;;;;;;;8.57;5.70;;;;;;;8.25;100.00;100307.53;5011161;28;20428;-75
2024/02/22 01:26:34;;;;;;;8.83;6.00;;;;;;;8.12;100.00;100278.88;5008863;28;20424;-75
2024/02/22 01:28:59;;;;;;;8.23;6.07;;;;;;;7.86;100.00;100248.31;5006428;28;20212;-75
2024/02/22 01:31:25;;;;;;;7.90;5.80;;;;;;;7.86;100.00;100224.28;5006219;28;20563;-75
2024/02/22 01:33:50;;;;;;;8.10;5.83;;;;;;;7.81;100.00;100212.53;5007096;28;20653;-75
2024/02/22 01:36:17;;;;;;;8.30;6.10;;;;;;;8.17;100.00;100265.75;5005436;28;20224;-75
2024/02/22 01:38:43;;;;;;;9.50;6.13;;;;;;;8.01;100.00;100258.88;5005937;28;20201;-75
2024/02/22 01:41:08;;;;;;;9.43;6.43;;;;;;;7.77;100.00;100217.44;5008859;28;20514;-75
2024/02/22 01:43:34;;;;;;;8.40;6.40;;;;;;;8.44;100.00;100322.88;5010948;28;20193;-75
2024/02/22 01:46:01;;;;;;;7.67;5.80;;;;;;;7.70;100.00;100208.56;5013582;28;20584;-75
2024/02/22 01:48:27;;;;;;;8.70;6.63;;;;;;;8.35;100.00;100306.13;5009072;28;20462;-75
2024/02/22 01:50:53;;;;;;;7.67;5.97;;;;;;;8.26;100.00;100275.25;5010638;28;20447;-75
2024/02/22 01:53:21;;;;;;;7.60;5.70;;;;;;;7.69;100.00;100196.22;5007125;28;20439;-75
2024/02/22 01:55:47;;;;;;;7.97;6.10;;;;;;;7.75;100.00;100178.59;5013086;28;20967;-75
2024/02/22 01:58:14;;;;;;;8.17;6.20;;;;;;;8.40;100.00;100300.25;5010790;28;20491;-75
2024/02/22 02:00:41;;;;;;;8.00;5.23;;;;;;;8.45;100.00;100295.13;5011143;28;20501;-75
2024/02/22 02:03:06;;;;;;;7.83;5.90;;;;;;;7.93;100.00;100208.31;5015234;28;20428;-75
2024/02/22 02:05:32;;;;;;;8.33;5.80;;;;;;;8.26;100.00;100242.38;5012909;28;20880;-75
2024/02/22 02:07:58;;;;;;;7.40;4.80;;;;;;;7.63;100.00;100146.31;5013400;28;20201;-75
2024/02/22 02:10:26;;;;;;;7.87;5.83;;;;;;;8.42;100.00;100273.31;5009112;28;20704;-75
2024/02/22 02:12:51;;;;;;;7.30;5.37;;;;;;;8.23;100.00;100238.25;5010158;28;20192;-75
2024/02/22 02:15:16;;;;;;;10.13;5.80;;;;;;;8.52;100.00;100277.28;5015858;28;20425;-75
2024/02/22 02:17:43;;;;;;;7.67;5.40;;;;;;;7.99;100.00;100196.00;5011643;28;20225;-75
2024/02/22 02:20:10;;;;;;;8.30;5.60;;;;;;;7.78;100.00;100167.53;5009502;28;20204;-75
2024/02/22 02:22:57;;;;;;;7.47;5.43;;;;;;;8.10;100.00;100200.78;5011274;28;20429;-75
2024/02/22 02:25:24;;;;;;;8.00;5.47;;;;;;;8.30;100.00;100244.47;5011487;28;20487;-75
2024/02/22 02:27:50;;;;;;;8.10;6.00;;;;;;;7.81;100.00;100149.31;5008143;28;20455;-75
2024/02/22 02:30:15;;;;;;;7.73;5.90;;;;;;;8.27;100.00;100209.28;5008226;28;20428;-75
2024/02/22 02:32:40;;;;;;;8.77;6.53;;;;;;;8.62;100.00;100258.19;5013901;28;20224;-75
2024/02/22 02:35:06;;;;;;;8.47;6.00;;;;;;;8.32;100.00;100210.34;5014216;28;20189;-75
2024/02/22 02:37:32;;;;;;;8.43;6.30;;;;;;;8.07;100.00;100143.25;5009042;28;20631;-75
2024/02/22 02:39:57;;;;;;;8.80;6.63;;;;;;;8.44;100.00;100212.47;5009550;28;20209;-75
2024/02/22 02:42:24;;;;;;;10.13;7.77;;;;;;;8.57;100.00;100242.75;5009231;28;20181;-75
2024/02/22 02:44:49;;;;;;;9.50;6.33;;;;;;;8.44;100.00;100215.16;5008019;28;20278;-75
2024/02/22 02:47:16;;;;;;;8.60;6.60;;;;;;;8.43;100.00;100203.63;5007455;28;20773;-75
2024/02/22 02:49:41;;;;;;;8.40;6.30;;;;;;;8.40;100.00;100200.53;5008786;28;20181;-75
2024/02/22 02:52:06;;;;;;;8.90;6.50;;;;;;;8.37;100.00;100194.53;5012654;28;20424;-75
2024/02/22 02:54:32;;;;;;;9.20;6.97;;;;;;;8.21;100.00;100160.13;5010595;28;20190;-75
2024/02/22 02:56:57;;;;;;;8.77;6.50;;;;;;;8.44;100.00;100191.91;5010494;28;20195;-75
2024/02/22 02:59:23;;;;;;;8.40;6.27;;;;;;;7.94;100.00;100116.47;5011836;28;20262;-75
2024/02/22 03:01:49;;;;;;;9.10;6.80;;;;;;;7.97;100.00;100125.94;5008391;28;20196;-75
2024/02/22 03:04:17;;;;;;;9.13;7.50;;;;;;;8.63;100.00;100229.63;5007333;28;20224;-75
2024/02/22 03:06:43;;;;;;;8.10;6.30;;;;;;;8.63;100.00;100227.75;5009047;28;20440;-75
2024/02/22 03:09:09;;;;;;;8.97;7.10;;;;;;;7.93;100.00;100115.66;5004952;28;21051;-75
2024/02/22 03:11:35;;;;;;;10.17;7.50;;;;;;;8.00;100.00;100133.56;5008619;28;20520;-75
2024/02/22 03:14:00;;;;;;;9.43;7.37;;;;;;;8.61;100.00;100221.78;5007615;28;20447;-75
2024/02/22 03:16:26;;;;;;;10.43;7.80;;;;;;;7.77;100.00;100081.28;5004299;28;20441;-75
2024/02/22 03:18:51;;;;;;;9.57;7.13;;;;;;;8.56;100.00;100195.66;5008805;28;20248;-75
2024/02/22 03:21:20;;;;;;;9.17;7.00;;;;;;;8.13;100.00;100120.28;5011051;28;20295;-75
2024/02/22 03:23:46;;;;;;;10.20;7.53;;;;;;;8.67;100.00;100212.94;5009721;28;20248;-75
2024/02/22 03:26:12;;;;;;;10.13;7.57;;;;;;;8.00;100.00;100096.16;5010442;28;20793;-75
2024/02/22 03:28:37;;;;;;;9.07;6.50;;;;;;;8.73;100.00;100208.66;5008954;28;20861;-75
2024/02/22 03:31:03;;;;;;;10.13;7.50;;;;;;;8.67;100.00;100193.41;5007194;28;20238;-75
2024/02/22 03:33:29;;;;;;;9.20;6.73;;;;;;;7.98;100.00;100095.53;5011005;28;20257;-75
2024/02/22 03:35:57;;;;;;;9.70;6.90;;;;;;;8.34;100.00;100151.38;5013232;28;20517;-75
2024/02/22 03:38:22;;;;;;;10.13;6.60;;;;;;;8.70;100.00;100196.50;5003307;28;20243;-75
2024/02/22 03:40:47;;;;;;;8.30;5.67;;;;;;;8.45;100.00;100153.50;5010442;28;20562;-75
2024/02/22 03:43:14;;;;;;;9.70;7.43;;;;;;;7.96;100.00;100082.41;5008444;28;20283;-75
2024/02/22 03:45:39;;;;;;;8.30;5.90;;;;;;;8.79;100.00;100238.09;5010616;28;20642;-75
2024/02/22 03:48:06;;;;;;;8.80;6.00;;;;;;;8.83;100.00;100214.44;5005560;28;20476;-75
2024/02/22 03:50:31;;;;;;;9.27;6.97;;;;;;;8.80;100.00;100234.38;5006479;28;20185;-75
2024/02/22 03:52:57;;;;;;;8.63;6.00;;;;;;;8.23;100.00;100123.38;5007446;28;20434;-75
2024/02/22 03:55:22;;;;;;;9.57;6.53;;;;;;;7.88;100.00;100075.38;5006241;28;20185;-75
2024/02/22 03:57:47;;;;;;;8.63;6.07;;;;;;;8.55;100.00;100158.44;5007676;28;20205;-75
2024/02/22 04:00:15;;;;;;;8.10;5.90;;;;;;;8.34;100.00;100141.50;5006820;28;20213;-75
2024/02/22 04:02:43;;;;;;;9.80;6.53;;;;;;;8.35;100.00;100128.94;5008389;28;20607;-75
2024/02/22 04:05:09;;;;;;;9.63;6.83;;;;;;;8.58;100.00;100177.56;5005378;28;20468;-75
2024/02/22 04:07:35;;;;;;;9.77;6.83;;;;;;;8.22;100.00;100132.41;5006615;28;20455;-75
2024/02/22 04:10:01;;;;;;;10.07;6.67;;;;;;;8.86;100.00;100223.91;5010902;28;20435;-75
2024/02/22 04:12:27;;;;;;;10.07;7.33;;;;;;;8.88;100.00;100229.88;5005048;28;20238;-75
2024/02/22 04:14:52;;;;;;;12.00;8.00;;;;;;;8.53;100.00;100169.34;5010455;28;20432;-75
2024/02/22 04:17:18;;;;;;;12.97;8.73;;;;;;;8.20;100.00;100110.41;5007850;28;20214;-75
2024/02/22 04:19:43;;;;;;;13.10;8.13;;;;;;;8.36;100.00;100119.91;5008346;28;20205;-75
2024/02/22 04:22:09;;;;;;;13.73;8.40;;;;;;;8.31;100.00;100125.88;5008384;28;20192;-75
2024/02/22 04:24:34;;;;;;;11.50;7.80;;;;;;;8.83;100.00;100185.84;5010352;28;20189;-75
2024/02/22 04:27:00;;;;;;;12.70;8.13;;;;;;;8.42;100.00;100118.31;5007121;28;20185;-75
2024/02/22 04:31:54;;;;;;;12.20;8.30;;;;;;;7.07;100.00;99927.66;5030372;28;20228;-79
2024/02/22 04:34:19;;;;;;;14.23;9.10;;;;;;;7.03;100.00;99967.25;5015845;28;20446;-78
2024/02/22 04:36:45;;;;;;;14.03;8.70;;;;;;;7.46;100.00;100045.25;5020128;28;20195;-78
2024/02/22 04:39:11;;;;;;;14.10;8.00;;;;;;;7.58;100.00;100024.16;5019440;28;20681;-79
2024/02/22 04:41:37;;;;;;;13.10;8.87;;;;;;;7.29;100.00;99979.88;5017417;28;20243;-78
2024/02/22 04:44:03;;;;;;;16.00;10.33;;;;;;;7.72;100.00;100042.88;5037155;28;20231;-79
2024/02/22 04:46:28;;;;;;;18.20;10.80;;;;;;;6.09;100.00;99790.00;5016853;28;20431;-78
2024/02/22 04:48:56;;;;;;;13.13;8.73;;;;;;;7.17;100.00;99949.44;5017775;28;20199;-78
2024/02/22 04:51:21;;;;;;;15.47;9.70;;;;;;;6.86;100.00;99942.75;5035413;28;20510;-78
2024/02/22 04:53:47;;;;;;;15.83;10.10;;;;;;;6.72;100.00;99909.84;5018599;28;20514;-79
2024/02/22 04:56:13;;;;;;;17.73;10.27;;;;;;;6.91;100.00;99948.28;5038105;28;20188;-78
2024/02/22 04:58:38;;;;;;;18.20;9.97;;;;;;;6.13;100.00;99789.63;5018238;28;20347;-78
2024/02/22 05:01:04;;;;;;;15.70;9.13;;;;;;;6.71;100.00;99900.22;5031292;28;20230;-79
2024/02/22 05:03:30;;;;;;;15.90;9.93;;;;;;;7.17;100.00;99995.59;5035026;28;20226;-79
2024/02/22 05:05:56;;;;;;;16.10;8.13;;;;;;;7.02;100.00;99937.06;5034731;28;20423;-78
2024/02/22 05:08:23;;;;;;;16.17;9.57;;;;;;;7.92;100.00;100076.63;5014218;28;20205;-78
2024/02/22 05:10:49;;;;;;;15.23;9.47;;;;;;;7.64;100.00;100031.34;5016890;28;20436;-79
2024/02/22 05:13:15;;;;;;;14.33;9.20;;;;;;;7.04;100.00;99989.41;5015781;28;20534;-79
2024/02/22 05:15:40;;;;;;;15.70;10.23;;;;;;;7.16;100.00;99955.81;5018962;28;20451;-79
2024/02/22 05:18:06;;;;;;;15.57;9.03;;;;;;;6.42;100.00;99825.84;5037469;28;20220;-80
2024/02/22 05:20:33;;;;;;;14.77;8.60;;;;;;;7.96;100.00;100090.41;5020571;28;20208;-79
2024/02/22 05:22:58;;;;;;;16.07;9.63;;;;;;;8.26;100.00;100103.44;5020620;28;20688;-79
2024/02/22 05:25:25;;;;;;;14.57;9.30;;;;;;;7.60;100.00;99356.78;5020072;28;20434;-79
2024/02/22 05:27:51;;;;;;;14.37;8.60;;;;;;;6.06;100.00;99220.72;5035545;28;20661;-79
2024/02/22 05:30:17;;;;;;;14.60;8.50;;;;;;;6.06;100.00;99148.88;5017516;28;20479;-79
2024/02/22 05:32:42;;;;;;;13.27;8.37;;;;;;;6.63;100.00;99108.22;5016669;28;20197;-79
2024/02/22 05:35:08;;;;;;;14.13;7.40;;;;;;;7.08;100.00;99194.22;5038155;28;20436;-79
2024/02/22 05:37:34;;;;;;;14.57;7.57;;;;;;;7.36;100.00;99176.97;5018231;28;20205;-79
2024/02/22 05:40:00;;;;;;;15.40;8.50;;;;;;;6.40;100.00;99042.22;5034620;28;20502;-79
2024/02/22 05:42:26;;;;;;;13.80;7.67;;;;;;;7.30;100.00;99136.00;5016428;28;20185;-79
2024/02/22 05:44:52;;;;;;;12.20;7.47;;;;;;;7.34;100.00;99099.84;5019944;28;20446;-79
2024/02/22 05:47:17;;;;;;;14.30;7.57;;;;;;;6.76;100.00;98965.03;5038350;28;20196;-78
2024/02/22 05:49:42;;;;;;;15.20;7.90;;;;;;;8.21;100.00;99182.47;5038252;28;20191;-79
2024/02/22 05:52:08;;;;;;;13.67;7.93;;;;;;;7.24;100.00;99032.88;5016608;28;20192;-79
2024/02/22 05:54:33;;;;;;;12.00;7.30;;;;;;;7.20;100.00;99015.66;5020961;28;20184;-79
2024/02/22 05:57:00;;;;;;;13.77;8.20;;;;;;;7.79;100.00;99133.47;5042677;28;20230;-80
2024/02/22 05:59:26;;;;;;;12.30;7.73;;;;;;;6.51;100.00;98863.06;5024939;28;20208;-79
2024/02/22 06:01:51;;;;;;;13.17;8.40;;;;;;;7.05;100.00;98970.69;5025580;28;20471;-79
2024/02/22 06:04:17;;;;;;;12.80;7.77;;;;;;;6.55;100.00;98902.34;5023943;28;20194;-79
2024/02/22 06:06:43;;;;;;;12.27;7.13;;;;;;;6.83;100.00;98830.91;5043231;28;20177;-79
2024/02/22 06:09:09;;;;;;;12.50;7.27;;;;;;;7.52;100.00;99015.53;5036863;28;20469;-79
2024/02/22 06:11:35;;;;;;;10.67;6.87;;;;;;;6.93;100.00;98797.38;5019717;28;20188;-81
2024/02/22 06:14:01;;;;;;;12.30;7.77;;;;;;;6.88;100.00;98748.44;5022408;28;20177;-79
2024/02/22 06:16:26;;;;;;;10.43;6.23;;;;;;;7.59;100.00;98857.00;5021829;28;20431;-79
2024/02/22 06:18:52;;;;;;;10.90;6.00;;;;;;;6.55;100.00;98774.47;5020067;28;20756;-79
2024/02/22 06:21:18;;;;;;;11.00;6.20;;;;;;;7.34;100.00;98899.81;5036004;28;20258;-79
2024/02/22 06:23:44;;;;;;;10.33;5.90;;;;;;;6.99;100.00;98849.78;5038782;28;20427;-79
2024/02/22 06:26:09;;;;;;;10.73;6.50;;;;;;;6.52;100.00;98763.47;5035926;28;20431;-80
2024/02/22 06:28:35;;;;;;;9.93;5.83;;;;;;;7.32;100.00;98749.06;5018099;28;20257;-79
2024/02/22 06:31:01;;;;;;;9.63;5.60;;;;;;;6.79;100.00;98708.78;5035339;28;20264;-79
2024/02/22 06:33:26;;;;;;;10.27;5.40;;;;;;;7.26;100.00;98820.09;5016529;28;20188;-79
2024/02/22 06:35:52;;;;;;;11.40;6.20;;;;;;;7.36;100.00;98721.72;5020091;28;20426;-79
2024/02/22 06:38:17;;;;;;;9.00;4.50;;;;;;;7.86;100.00;98880.59;5017716;28;20212;-79
2024/02/22 06:40:50;;;;;;;11.13;5.43;;;;;;;6.79;100.00;98652.84;5020034;28;20203;-79
2024/02/22 06:43:17;;;;;;;9.53;5.30;;;;;;;6.40;100.00;98602.81;5034050;28;20802;-79
2024/02/22 06:45:42;;;;;;;9.77;5.43;;;;;;;7.92;100.00;98843.13;5036848;28;20428;-79
2024/02/22 06:48:08;;;;;;;9.97;5.50;;;;;;;8.01;100.00;98872.16;5018379;28;20818;-80
2024/02/22 06:50:34;;;;;;;9.70;5.60;;;;;;;6.10;100.00;98513.09;5033839;28;20173;-79
2024/02/22 06:53:00;;;;;;;10.00;6.27;;;;;;;7.63;100.00;98778.09;5018757;28;20176;-80
2024/02/22 06:55:26;;;;;;;9.10;5.53;;;;;;;6.88;100.00;98639.19;5034680;28;20439;-79
2024/02/22 06:57:52;;;;;;;10.60;5.93;;;;;;;7.20;100.00;98781.84;5017200;28;20558;-79
2024/02/22 07:00:18;;;;;;;11.57;6.07;;;;;;;6.50;100.00;98670.47;5034635;28;20462;-79
2024/02/22 07:02:44;;;;;;;12.63;6.90;;;;;;;7.29;100.00;98761.00;5032771;28;20664;-79
2024/02/22 07:05:12;;;;;;;10.50;5.90;;;;;;;7.69;100.00;98805.72;5016913;28;20173;-79
2024/02/22 07:07:38;;;;;;;11.57;6.93;;;;;;;8.62;100.00;98959.16;5034686;28;20441;-79
2024/02/22 07:10:03;;;;;;;11.90;6.53;;;;;;;6.71;100.00;98577.75;5033645;28;20415;-79
2024/02/22 07:12:29;;;;;;;10.10;6.13;;;;;;;5.79;100.00;98456.41;5034754;28;20552;-79
2024/02/22 07:14:54;;;;;;;11.67;6.43;;;;;;;8.05;100.00;98871.47;5033749;28;20175;-79
2024/02/22 07:17:20;;;;;;;10.93;6.40;;;;;;;6.51;100.00;98535.47;5031044;28;20276;-79
2024/02/22 07:19:47;;;;;;;11.43;6.83;;;;;;;7.05;100.00;98676.66;5031916;28;20255;-79
2024/02/22 07:22:13;;;;;;;12.37;6.77;;;;;;;7.38;100.00;98793.50;5033869;28;20203;-79
2024/02/22 07:24:38;;;;;;;12.70;6.90;;;;;;;6.59;100.00;98567.06;5034282;28;20419;-79
2024/02/22 07:27:07;;;;;;;10.57;6.50;;;;;;;8.05;100.00;98762.00;5028194;28;20279;-79
2024/02/22 07:29:32;;;;;;;12.93;6.77;;;;;;;7.57;100.00;98723.00;5009245;28;20204;-79
2024/02/22 07:31:58;;;;;;;11.20;6.93;;;;;;;7.58;100.00;98665.13;5013753;28;20430;-79
2024/02/22 07:34:23;;;;;;;10.17;6.30;;;;;;;6.93;100.00;98572.69;5031664;28;20191;-78
2024/02/22 07:36:50;;;;;;;11.33;7.10;;;;;;;7.54;100.00;98691.44;5013743;28;20593;-79
2024/02/22 07:39:16;;;;;;;10.23;6.43;;;;;;;8.49;100.00;98810.53;5032665;28;20751;-79
2024/02/22 07:41:43;;;;;;;12.50;7.20;;;;;;;6.62;100.00;98547.16;5032324;28;20455;-79
2024/02/22 07:44:09;;;;;;;12.60;7.57;;;;;;;7.73;100.00;98715.38;5013576;28;20432;-79
2024/02/22 07:46:34;;;;;;;13.70;8.40;;;;;;;8.10;100.00;98804.84;5015195;28;20762;-80
2024/02/22 07:49:00;;;;;;;15.17;10.17;;;;;;;7.32;100.00;98719.72;5030713;28;21510;-79
2024/02/22 07:51:25;;;;;;;14.73;9.60;;;;;;;9.26;100.00;98981.41;5030602;28;20222;-79
2024/02/22 07:53:50;;;;;;;16.13;9.73;;;;;;;7.37;100.00;98661.97;5030492;28;20272;-79
2024/02/22 07:56:16;;;;;;;18.30;10.97;;;;;;;9.13;100.00;98956.78;5030742;28;20665;-79
2024/02/22 07:58:53;;;;;;;21.83;10.40;;;;;;;9.27;100.00;98897.44;5014566;28;20214;-79
2024/02/22 08:01:19;;;;;;;20.97;10.50;;;;;;;6.57;100.00;98514.06;5028441;28;20463;-79
2024/02/22 08:03:45;;;;;;;19.97;12.57;;;;;;;7.12;100.00;98613.41;5017091;28;20445;-79
2024/02/22 08:06:12;;;;;;;19.17;11.87;;;;;;;7.50;100.00;98556.13;5018596;28;20188;-79
2024/02/22 08:08:38;;;;;;;30.33;14.87;;;;;;;7.15;100.00;98525.78;5019762;28;20465;-79
2024/02/22 08:11:05;;;;;;;22.17;13.40;;;;;;;8.15;100.00;98679.44;5036893;28;20951;-79
2024/02/22 08:13:30;;;;;;;25.00;12.87;;;;;;;7.17;100.00;98541.53;5039227;28;20427;-80
2024/02/22 08:16:05;;;;;;;22.73;12.90;;;;;;;8.22;100.00;98665.97;5020789;28;20427;-79
2024/02/22 08:18:32;;;;;;;26.73;13.20;;;;;;;8.58;100.00;98841.19;5018932;28;20201;-79
2024/02/22 08:20:57;;;;;;;28.75;13.80;;;;;;;7.67;100.00;98525.81;5039472;28;20496;-78
2024/02/22 08:23:23;;;;;;;29.90;12.43;;;;;;;7.93;100.00;98633.06;5020302;28;20184;-79
2024/02/22 08:25:48;;;;;;;28.57;13.97;;;;;;;7.22;100.00;98584.31;5039023;28;20188;-79
2024/02/22 08:28:15;;;;;;;26.83;12.70;;;;;;;7.77;100.00;98682.63;5019419;28;20217;-79
2024/02/22 08:30:41;;;;;;;30.07;13.80;;;;;;;7.43;100.00;98476.22;5020057;28;20250;-79
2024/02/22 08:33:06;;;;;;;28.63;12.67;;;;;;;6.89;100.00;98427.66;5022536;28;20419;-79
2024/02/22 08:35:32;;;;;;;35.93;11.50;;;;;;;7.34;100.00;98581.63;5021119;28;20188;-79
2024/02/22 08:37:57;;;;;;;39.43;11.90;;;;;;;6.80;100.00;98496.47;5038975;28;20210;-79
2024/02/22 08:40:23;;;;;;;32.10;11.87;;;;;;;7.12;100.00;98616.06;5023190;28;20298;-79
2024/02/22 08:42:48;;;;;;;34.23;11.30;;;;;;;6.22;100.00;98338.28;5036932;28;20184;-80
2024/02/22 08:45:18;;;;;;;29.83;9.77;;;;;;;6.44;100.00;98410.38;5039383;28;20184;-79
2024/02/22 08:47:44;;;;;;;24.53;8.60;;;;;;;8.15;100.00;98639.38;5021127;28;20236;-79
2024/02/22 08:50:12;;;;;;;26.03;7.37;;;;;;;6.95;100.00;98446.16;5038980;28;20434;-79
2024/02/22 08:52:40;;;;;;;27.40;8.13;;;;;;;8.35;100.00;98680.91;5034517;28;20427;-79
2024/02/22 08:55:08;;;;;;;29.27;7.30;;;;;;;7.14;100.00;98505.47;5037623;28;20427;-79
2024/02/22 08:57:33;;;;;;;30.33;8.33;;;;;;;6.76;100.00;98512.09;5036940;28;20816;-79
2024/02/22 08:59:58;;;;;;;33.27;7.27;;;;;;;8.49;100.00;98703.66;5034433;28;20465;-79
2024/02/22 09:02:24;;;;;;;22.40;6.33;;;;;;;7.57;100.00;98615.47;5036657;28;20727;-80
2024/02/22 09:04:49;;;;;;;40.20;6.43;;;;;;;7.66;100.00;98672.78;5035717;28;20244;-78
2024/02/22 09:07:15;;;;;;;21.73;5.50;;;;;;;7.54;100.00;98567.94;5036922;28;20188;-80
2024/02/22 09:09:40;;;;;;;24.53;6.23;;;;;;;7.20;100.00;98568.56;5038286;28;20180;-79
2024/02/22 09:12:06;;;;;;;26.37;6.03;;;;;;;7.26;100.00;98646.78;5037569;28;20241;-79
2024/02/22 09:14:32;;;;;;;22.00;5.40;;;;;;;8.21;100.00;98733.78;5038015;28;20234;-80
2024/02/22 09:16:57;;;;;;;16.33;5.60;;;;;;;7.81;100.00;98763.88;5019878;28;20187;-79
2024/02/22 09:19:25;;;;;;;20.27;5.23;;;;;;;8.14;100.00;98738.44;5034678;28;20477;-79
2024/02/22 09:21:51;;;;;;;21.67;5.10;;;;;;;8.31;100.00;98781.28;5036043;28;20433;-79
2024/02/22 09:24:16;;;;;;;22.23;5.67;;;;;;;7.62;100.00;98762.34;5030970;28;20427;-79
2024/02/22 09:26:42;;;;;;;25.00;5.93;;;;;;;7.11;100.00;98707.75;5020690;28;20215;-79
2024/02/22 09:29:07;;;;;;;20.30;4.43;;;;;;;7.30;100.00;98765.28;5037410;28;20893;-80
2024/02/22 09:31:33;;;;;;;21.97;4.90;;;;;;;8.42;100.00;98915.88;5036303;28;20180;-79
2024/02/22 09:34:00;;;;;;;19.53;4.60;;;;;;;6.96;100.00;98772.94;5018795;28;20185;-79
2024/02/22 09:36:26;;;;;;;18.07;4.33;;;;;;;9.55;100.00;99111.81;5018459;28;20190;-80
2024/02/22 09:38:52;;;;;;;19.27;4.90;;;;;;;7.21;100.00;98820.00;5037670;28;20439;-79
2024/02/22 09:41:19;;;;;;;22.30;5.40;;;;;;;8.02;100.00;98965.41;5019479;28;20216;-79
2024/02/22 09:43:45;;;;;;;23.40;5.67;;;;;;;7.15;100.00;98800.38;5038168;28;20195;-80
2024/02/22 09:46:11;;;;;;;24.30;5.30;;;;;;;6.84;100.00;98868.03;5038412;28;20423;-79
2024/02/22 09:48:37;;;;;;;21.93;5.50;;;;;;;7.37;100.00;98944.69;5018966;28;20204;-80
2024/02/22 09:51:05;;;;;;;25.87;7.40;;;;;;;8.72;100.00;99284.66;5036752;28;20422;-80
2024/02/22 09:53:31;;;;;;;26.47;6.90;;;;;;;7.09;100.00;99019.06;5033624;28;20190;-80
2024/02/22 09:55:57;;;;;;;25.60;6.77;;;;;;;7.56;100.00;99116.25;5014768;28;20435;-80
2024/02/22 09:58:23;;;;;;;23.23;6.70;;;;;;;7.11;100.00;99167.09;5036954;28;20451;-79
2024/02/22 10:00:50;;;;;;;25.40;5.73;;;;;;;7.04;100.00;99133.56;5019557;28;20869;-80
2024/02/22 10:03:16;;;;;;;19.60;6.23;;;;;;;8.61;100.00;99443.91;5018304;28;20941;-80
2024/02/22 10:05:41;;;;;;;22.93;6.53;;;;;;;8.02;100.00;99312.50;5020265;28;20439;-80
2024/02/22 10:08:12;;;;;;;19.63;5.80;;;;;;;8.55;100.00;99477.69;5041384;28;20211;-80
2024/02/22 10:10:40;;;;;;;18.20;5.20;;;;;;;8.02;100.00;99413.97;5041093;28;20185;-80
2024/02/22 10:13:05;;;;;;;22.40;6.70;;;;;;;8.48;100.00;99478.81;5019540;28;20420;-79
2024/02/22 10:15:32;;;;;;;17.73;5.80;;;;;;;8.38;100.00;99425.81;5037682;28;21010;-80
2024/02/22 10:17:57;;;;;;;22.40;6.17;;;;;;;8.00;100.00;99503.34;5020799;28;20686;-79
2024/02/22 10:20:33;;;;;;;17.50;4.90;;;;;;;8.18;100.00;99428.63;5037690;28;20463;-80
2024/02/22 10:23:08;;;;;;;23.17;5.87;;;;;;;10.03;100.00;99804.47;5039277;28;20281;-80
2024/02/22 10:25:34;;;;;;;19.63;5.60;;;;;;;7.70;100.00;99503.91;5017937;28;20439;-79
2024/02/22 10:28:00;;;;;;;22.57;6.50;;;;;;;7.89;100.00;99494.97;5022115;28;20478;-80
2024/02/22 10:30:26;;;;;;;24.60;5.50;;;;;;;8.45;100.00;99559.41;5040583;22;20563;-76
2024/02/22 10:32:55;;;;;;;20.23;5.63;;;;;;;9.81;100.00;99759.38;5052115;28;20188;-76
2024/02/22 10:35:23;;;;;;;19.73;5.57;;;;;;;10.00;100.00;99879.94;5034214;28;20429;-76
2024/02/22 10:37:52;;;;;;;21.47;5.87;;;;;;;8.44;100.00;99563.09;5051598;28;20446;-76
2024/02/22 10:40:18;;;;;;;24.23;7.17;;;;;;;9.54;100.00;99763.28;5036768;28;20476;-75
2024/02/22 10:42:44;;;;;;;22.40;6.60;;;;;;;9.42;100.00;99809.50;5055963;28;20426;-75
2024/02/22 10:45:10;;;;;;;17.03;5.80;;;;;;;8.18;100.00;99467.88;5049947;28;20517;-75
2024/02/22 10:47:37;;;;;;;25.60;5.47;;;;;;;8.37;100.00;98893.34;5033902;28;20517;-76
2024/02/22 10:50:05;;;;;;;18.93;5.87;;;;;;;9.56;100.00;99087.47;5034059;28;20182;-76
2024/02/22 10:52:35;;;;;;;22.10;5.90;;;;;;;10.58;100.00;99252.22;5047546;28;20419;-75
2024/02/22 10:55:06;;;;;;;22.37;5.90;;;;;;;10.45;100.00;99221.16;5047215;28;20866;-76
2024/02/22 10:57:34;;;;;;;18.47;4.77;;;;;;;9.84;100.00;99176.97;5029785;28;20447;-75
2024/02/22 11:00:01;;;;;;;21.23;5.80;;;;;;;8.88;100.00;99056.78;5028964;28;20465;-75
2024/02/22 11:02:28;;;;;;;25.53;6.53;;;;;;;10.29;100.00;99288.88;5049539;28;20432;-76
2024/02/22 11:05:02;;;;;;;20.00;5.40;;;;;;;7.95;100.00;98892.56;5028525;28;20437;-75
2024/02/22 11:07:28;;;;;;;20.50;6.50;;;;;;;7.80;100.00;98857.50;5027303;28;20445;-76
2024/02/22 11:10:03;;;;;;;26.47;7.00;;;;;;;9.28;100.00;99113.06;5048249;28;20407;-75
2024/02/22 11:12:33;;;;;;;23.43;6.10;;;;;;;9.16;100.00;99098.06;5030478;28;20648;-76
2024/02/22 11:15:06;;;;;;;17.30;5.43;;;;;;;8.21;100.00;98963.44;5045371;28;20561;-76
2024/02/22 11:17:32;;;;;;;23.77;6.43;;;;;;;8.66;100.00;99020.97;5029568;28;20454;-75
2024/02/22 11:20:06;;;;;;;16.67;5.87;;;;;;;8.18;100.00;98921.19;5049720;28;20520;-76
2024/02/22 11:22:36;;;;;;;24.77;5.90;;;;;;;10.14;100.00;99225.81;5030022;28;20668;-75